sensor_id;sensor_type;location;lat;lon;timestamp;P1;P2;P0
26185;PMS7003;20067;48.764;9.176;2022-07-06T00:01:33;10.00;10.00;7.00
26185;PMS7003;20067;48.764;9.176;2022-07-06T00:03:59;10.25;10.25;7.00
26185;PMS7003;20067;48.764;9.176;2022-07-06T00:06:26;13.00;11.00;7.00
26185;PMS7003;20067;48.764;9.176;2022-07-06T00:08:52;13.00;11.00;8.00
26185;PMS7003;20067;48.764;9.176;2022-07-06T00:11:18;10.75;10.50;7.00
26185;PMS7003;20067;48.764;9.176;2022-07-06T00:13:43;11.50;11.50;8.00
26185;PMS7003;20067;48.764;9.176;2022-07-06T00:16:09;10.25;10.25;7.00
26185;PMS7003;20067;48.764;9.176;2022-07-06T00:18:34;13.50;13.25;7.25
26185;PMS7003;20067;48.764;9.176;2022-07-06T00:21:00;12.00;11.00;7.00
26185;PMS7003;20067;48.764;9.176;2022-07-06T00:23:26;12.00;10.75;7.00
26185;PMS7003;20067;48.764;9.176;2022-07-06T00:25:51;13.50;12.50;8.00
26185;PMS7003;20067;48.764;9.176;2022-07-06T00:28:17;10.75;10.75;7.75
26185;PMS7003;20067;48.764;9.176;2022-07-06T00:30:42;12.50;12.50;7.75
26185;PMS7003;20067;48.764;9.176;2022-07-06T00:33:08;11.75;11.75;7.25
26185;PMS7003;20067;48.764;9.176;2022-07-06T00:35:33;12.25;12.25;8.00
26185;PMS7003;20067;48.764;9.176;2022-07-06T00:37:59;14.00;13.00;9.25
26185;PMS7003;20067;48.764;9.176;2022-07-06T00:40:25;12.00;11.75;8.50
26185;PMS7003;20067;48.764;9.176;2022-07-06T00:42:50;13.25;13.00;9.00
26185;PMS7003;20067;48.764;9.176;2022-07-06T00:45:17;13.50;13.00;8.50
26185;PMS7003;20067;48.764;9.176;2022-07-06T00:47:44;13.25;13.25;8.75
26185;PMS7003;20067;48.764;9.176;2022-07-06T00:50:11;12.00;12.00;7.00
26185;PMS7003;20067;48.764;9.176;2022-07-06T00:55:25;12.50;12.50;8.00
26185;PMS7003;20067;48.764;9.176;2022-07-06T00:57:53;14.25;12.50;8.50
26185;PMS7003;20067;48.764;9.176;2022-07-06T01:00:20;13.00;13.00;8.00
26185;PMS7003;20067;48.764;9.176;2022-07-06T01:02:51;12.25;11.75;7.00
26185;PMS7003;20067;48.764;9.176;2022-07-06T01:05:18;12.50;12.00;7.25
26185;PMS7003;20067;48.764;9.176;2022-07-06T01:07:45;13.25;13.25;8.00
26185;PMS7003;20067;48.764;9.176;2022-07-06T01:10:12;12.00;11.75;7.75
26185;PMS7003;20067;48.764;9.176;2022-07-06T01:12:40;11.75;11.75;7.00
26185;PMS7003;20067;48.764;9.176;2022-07-06T01:15:09;13.50;12.25;8.00
26185;PMS7003;20067;48.764;9.176;2022-07-06T01:17:38;13.00;13.00;8.00
26185;PMS7003;20067;48.764;9.176;2022-07-06T01:20:07;14.25;12.00;7.50
26185;PMS7003;20067;48.764;9.176;2022-07-06T01:22:37;12.50;12.00;7.00
26185;PMS7003;20067;48.764;9.176;2022-07-06T01:25:04;11.50;11.50;7.50
26185;PMS7003;20067;48.764;9.176;2022-07-06T01:27:32;12.00;12.00;7.50
26185;PMS7003;20067;48.764;9.176;2022-07-06T01:29:59;9.25;9.00;6.00
26185;PMS7003;20067;48.764;9.176;2022-07-06T01:32:25;12.00;11.00;6.25
26185;PMS7003;20067;48.764;9.176;2022-07-06T01:34:51;13.50;12.25;7.00
26185;PMS7003;20067;48.764;9.176;2022-07-06T01:37:16;11.75;11.75;7.00
26185;PMS7003;20067;48.764;9.176;2022-07-06T01:39:42;13.00;12.75;8.00
26185;PMS7003;20067;48.764;9.176;2022-07-06T01:42:07;11.75;10.25;6.50
26185;PMS7003;20067;48.764;9.176;2022-07-06T01:44:33;12.00;11.00;6.00
26185;PMS7003;20067;48.764;9.176;2022-07-06T01:46:59;12.75;12.75;7.75
26185;PMS7003;20067;48.764;9.176;2022-07-06T01:49:24;11.00;10.00;5.00
26185;PMS7003;20067;48.764;9.176;2022-07-06T01:51:50;16.00;12.00;6.25
26185;PMS7003;20067;48.764;9.176;2022-07-06T01:54:15;11.75;10.75;6.75
26185;PMS7003;20067;48.764;9.176;2022-07-06T01:56:41;11.75;10.00;6.00
26185;PMS7003;20067;48.764;9.176;2022-07-06T01:59:06;11.25;11.25;6.50
26185;PMS7003;20067;48.764;9.176;2022-07-06T02:01:32;11.00;11.00;7.00
26185;PMS7003;20067;48.764;9.176;2022-07-06T02:03:58;12.25;12.25;7.25
26185;PMS7003;20067;48.764;9.176;2022-07-06T02:06:23;11.00;10.25;7.00
26185;PMS7003;20067;48.764;9.176;2022-07-06T02:08:49;12.75;12.00;7.00
26185;PMS7003;20067;48.764;9.176;2022-07-06T02:11:16;9.50;9.50;6.00
26185;PMS7003;20067;48.764;9.176;2022-07-06T02:13:42;10.00;9.00;6.00
26185;PMS7003;20067;48.764;9.176;2022-07-06T02:16:07;9.75;9.75;4.50
26185;PMS7003;20067;48.764;9.176;2022-07-06T02:18:33;12.25;12.00;6.00
26185;PMS7003;20067;48.764;9.176;2022-07-06T02:20:59;11.00;10.75;6.00
26185;PMS7003;20067;48.764;9.176;2022-07-06T02:23:25;11.25;11.25;7.00
26185;PMS7003;20067;48.764;9.176;2022-07-06T02:25:51;11.00;9.00;6.00
26185;PMS7003;20067;48.764;9.176;2022-07-06T02:28:16;12.50;12.00;7.00
26185;PMS7003;20067;48.764;9.176;2022-07-06T02:30:42;16.00;11.50;6.50
26185;PMS7003;20067;48.764;9.176;2022-07-06T02:33:08;12.25;11.75;7.25
26185;PMS7003;20067;48.764;9.176;2022-07-06T02:35:33;11.50;11.50;6.00
26185;PMS7003;20067;48.764;9.176;2022-07-06T02:37:59;13.25;11.00;6.75
26185;PMS7003;20067;48.764;9.176;2022-07-06T02:40:25;11.25;11.25;7.00
26185;PMS7003;20067;48.764;9.176;2022-07-06T02:42:50;12.00;12.00;7.75
26185;PMS7003;20067;48.764;9.176;2022-07-06T02:45:16;12.75;11.00;6.75
26185;PMS7003;20067;48.764;9.176;2022-07-06T02:47:42;14.00;12.00;7.50
26185;PMS7003;20067;48.764;9.176;2022-07-06T02:50:07;11.75;11.75;7.50
26185;PMS7003;20067;48.764;9.176;2022-07-06T02:52:33;12.00;12.00;7.00
26185;PMS7003;20067;48.764;9.176;2022-07-06T02:54:58;14.00;12.50;7.75
26185;PMS7003;20067;48.764;9.176;2022-07-06T02:57:24;14.25;13.50;8.75
26185;PMS7003;20067;48.764;9.176;2022-07-06T02:59:50;11.50;11.50;6.25
26185;PMS7003;20067;48.764;9.176;2022-07-06T03:02:16;11.00;11.00;7.00
26185;PMS7003;20067;48.764;9.176;2022-07-06T03:04:42;14.00;11.75;7.00
26185;PMS7003;20067;48.764;9.176;2022-07-06T03:07:07;10.50;10.50;6.00
26185;PMS7003;20067;48.764;9.176;2022-07-06T03:09:33;15.00;12.00;7.00
26185;PMS7003;20067;48.764;9.176;2022-07-06T03:11:59;12.25;12.25;7.25
26185;PMS7003;20067;48.764;9.176;2022-07-06T03:14:24;13.00;13.00;9.75
26185;PMS7003;20067;48.764;9.176;2022-07-06T03:16:50;12.00;12.00;7.00
26185;PMS7003;20067;48.764;9.176;2022-07-06T03:19:16;13.50;13.00;9.00
26185;PMS7003;20067;48.764;9.176;2022-07-06T03:21:42;12.00;11.50;6.25
26185;PMS7003;20067;48.764;9.176;2022-07-06T03:24:08;13.00;12.00;7.50
26185;PMS7003;20067;48.764;9.176;2022-07-06T03:26:33;12.00;12.00;7.25
26185;PMS7003;20067;48.764;9.176;2022-07-06T03:28:59;13.25;12.75;8.00
26185;PMS7003;20067;48.764;9.176;2022-07-06T03:31:24;12.50;11.75;8.00
26185;PMS7003;20067;48.764;9.176;2022-07-06T03:33:50;13.00;11.25;7.00
26185;PMS7003;20067;48.764;9.176;2022-07-06T03:36:16;12.75;12.00;7.75
26185;PMS7003;20067;48.764;9.176;2022-07-06T03:38:42;14.00;13.00;8.00
26185;PMS7003;20067;48.764;9.176;2022-07-06T03:41:07;14.25;13.25;8.00
26185;PMS7003;20067;48.764;9.176;2022-07-06T03:43:33;11.00;11.00;6.50
26185;PMS7003;20067;48.764;9.176;2022-07-06T03:45:59;9.75;9.75;6.00
26185;PMS7003;20067;48.764;9.176;2022-07-06T03:48:24;11.75;11.00;7.00
26185;PMS7003;20067;48.764;9.176;2022-07-06T03:50:50;12.00;12.00;7.25
26185;PMS7003;20067;48.764;9.176;2022-07-06T03:53:16;11.75;10.50;7.00
26185;PMS7003;20067;48.764;9.176;2022-07-06T03:55:41;11.00;11.00;7.00
26185;PMS7003;20067;48.764;9.176;2022-07-06T03:58:07;10.00;10.00;6.00
26185;PMS7003;20067;48.764;9.176;2022-07-06T04:00:32;14.50;11.75;6.25
26185;PMS7003;20067;48.764;9.176;2022-07-06T04:02:59;15.00;13.00;7.00
26185;PMS7003;20067;48.764;9.176;2022-07-06T04:05:25;11.75;11.75;6.50
26185;PMS7003;20067;48.764;9.176;2022-07-06T04:07:51;13.00;12.00;7.00
26185;PMS7003;20067;48.764;9.176;2022-07-06T04:10:17;11.00;11.00;7.25
26185;PMS7003;20067;48.764;9.176;2022-07-06T04:12:43;15.25;13.25;8.00
26185;PMS7003;20067;48.764;9.176;2022-07-06T04:15:10;12.75;12.00;7.25
26185;PMS7003;20067;48.764;9.176;2022-07-06T04:17:37;13.00;11.50;7.75
26185;PMS7003;20067;48.764;9.176;2022-07-06T04:20:18;12.75;12.75;7.00
26185;PMS7003;20067;48.764;9.176;2022-07-06T04:22:45;15.00;14.25;7.25
26185;PMS7003;20067;48.764;9.176;2022-07-06T04:25:11;13.00;13.00;8.25
26185;PMS7003;20067;48.764;9.176;2022-07-06T04:27:36;13.25;11.75;8.00
26185;PMS7003;20067;48.764;9.176;2022-07-06T04:30:02;14.00;14.00;7.00
26185;PMS7003;20067;48.764;9.176;2022-07-06T04:32:29;15.25;15.25;10.00
26185;PMS7003;20067;48.764;9.176;2022-07-06T04:34:55;15.00;15.00;9.00
26185;PMS7003;20067;48.764;9.176;2022-07-06T04:37:20;18.25;17.25;10.25
26185;PMS7003;20067;48.764;9.176;2022-07-06T04:39:46;14.50;14.00;9.00
26185;PMS7003;20067;48.764;9.176;2022-07-06T04:42:12;15.75;15.75;10.00
26185;PMS7003;20067;48.764;9.176;2022-07-06T04:44:37;14.00;14.00;9.00
26185;PMS7003;20067;48.764;9.176;2022-07-06T04:47:03;18.75;15.00;10.00
26185;PMS7003;20067;48.764;9.176;2022-07-06T04:49:28;18.00;14.75;8.00
26185;PMS7003;20067;48.764;9.176;2022-07-06T04:51:54;13.75;13.75;8.75
26185;PMS7003;20067;48.764;9.176;2022-07-06T04:54:20;17.00;17.00;11.00
26185;PMS7003;20067;48.764;9.176;2022-07-06T04:56:45;16.00;16.00;10.00
26185;PMS7003;20067;48.764;9.176;2022-07-06T04:59:12;17.25;15.00;10.75
26185;PMS7003;20067;48.764;9.176;2022-07-06T05:01:38;16.00;13.50;8.25
26185;PMS7003;20067;48.764;9.176;2022-07-06T05:04:03;16.00;16.00;10.00
26185;PMS7003;20067;48.764;9.176;2022-07-06T05:06:29;15.50;15.50;10.00
26185;PMS7003;20067;48.764;9.176;2022-07-06T05:08:55;17.25;16.00;10.75
26185;PMS7003;20067;48.764;9.176;2022-07-06T05:11:20;17.50;15.00;10.00
26185;PMS7003;20067;48.764;9.176;2022-07-06T05:13:46;14.00;14.00;9.25
26185;PMS7003;20067;48.764;9.176;2022-07-06T05:16:12;14.50;14.00;8.50
26185;PMS7003;20067;48.764;9.176;2022-07-06T05:18:37;18.00;16.25;10.75
26185;PMS7003;20067;48.764;9.176;2022-07-06T05:21:03;16.00;15.25;10.75
26185;PMS7003;20067;48.764;9.176;2022-07-06T05:23:29;15.00;15.00;9.25
26185;PMS7003;20067;48.764;9.176;2022-07-06T05:25:54;15.25;15.25;9.00
26185;PMS7003;20067;48.764;9.176;2022-07-06T05:28:20;16.00;16.00;10.50
26185;PMS7003;20067;48.764;9.176;2022-07-06T05:30:45;16.75;16.00;9.00
26185;PMS7003;20067;48.764;9.176;2022-07-06T05:33:11;18.00;16.75;11.75
26185;PMS7003;20067;48.764;9.176;2022-07-06T05:35:37;22.25;18.50;11.00
26185;PMS7003;20067;48.764;9.176;2022-07-06T05:38:02;18.00;16.75;9.50
26185;PMS7003;20067;48.764;9.176;2022-07-06T05:40:28;16.25;16.00;11.00
26185;PMS7003;20067;48.764;9.176;2022-07-06T05:42:54;19.75;16.75;10.50
26185;PMS7003;20067;48.764;9.176;2022-07-06T05:45:19;16.50;16.00;10.25
26185;PMS7003;20067;48.764;9.176;2022-07-06T05:47:47;19.75;16.25;11.00
26185;PMS7003;20067;48.764;9.176;2022-07-06T05:50:31;15.25;15.00;9.00
26185;PMS7003;20067;48.764;9.176;2022-07-06T05:53:00;16.50;15.75;10.50
26185;PMS7003;20067;48.764;9.176;2022-07-06T05:55:28;16.75;15.50;10.75
26185;PMS7003;20067;48.764;9.176;2022-07-06T05:57:54;16.25;15.00;10.00
26185;PMS7003;20067;48.764;9.176;2022-07-06T06:00:20;17.75;17.00;12.00
26185;PMS7003;20067;48.764;9.176;2022-07-06T06:02:47;19.00;16.75;11.00
26185;PMS7003;20067;48.764;9.176;2022-07-06T06:05:13;14.00;14.00;9.00
26185;PMS7003;20067;48.764;9.176;2022-07-06T06:07:39;15.50;15.00;9.75
26185;PMS7003;20067;48.764;9.176;2022-07-06T06:10:09;16.25;15.50;10.00
26185;PMS7003;20067;48.764;9.176;2022-07-06T06:12:36;16.50;16.50;11.00
26185;PMS7003;20067;48.764;9.176;2022-07-06T06:15:03;14.25;13.75;8.25
26185;PMS7003;20067;48.764;9.176;2022-07-06T06:17:29;17.00;16.50;10.75
26185;PMS7003;20067;48.764;9.176;2022-07-06T06:19:55;16.00;16.00;9.00
26185;PMS7003;20067;48.764;9.176;2022-07-06T06:22:21;17.00;16.00;10.75
26185;PMS7003;20067;48.764;9.176;2022-07-06T06:24:47;19.00;16.50;11.00
26185;PMS7003;20067;48.764;9.176;2022-07-06T06:27:12;13.00;13.00;10.00
26185;PMS7003;20067;48.764;9.176;2022-07-06T06:29:38;15.00;14.75;9.25
26185;PMS7003;20067;48.764;9.176;2022-07-06T06:32:04;15.25;14.75;9.25
26185;PMS7003;20067;48.764;9.176;2022-07-06T06:34:30;17.00;16.00;11.00
26185;PMS7003;20067;48.764;9.176;2022-07-06T06:36:57;16.00;15.00;10.00
26185;PMS7003;20067;48.764;9.176;2022-07-06T06:39:22;13.00;13.00;8.00
26185;PMS7003;20067;48.764;9.176;2022-07-06T06:41:48;17.00;15.00;10.00
26185;PMS7003;20067;48.764;9.176;2022-07-06T06:44:14;13.50;13.00;8.25
26185;PMS7003;20067;48.764;9.176;2022-07-06T06:46:40;18.50;15.75;11.00
26185;PMS7003;20067;48.764;9.176;2022-07-06T06:49:06;16.75;16.75;12.00
26185;PMS7003;20067;48.764;9.176;2022-07-06T06:51:32;16.50;15.50;9.25
26185;PMS7003;20067;48.764;9.176;2022-07-06T06:53:58;14.25;14.00;8.00
26185;PMS7003;20067;48.764;9.176;2022-07-06T06:56:24;15.25;13.50;10.00
26185;PMS7003;20067;48.764;9.176;2022-07-06T06:58:50;16.25;15.00;10.00
26185;PMS7003;20067;48.764;9.176;2022-07-06T07:01:15;17.00;15.50;10.75
26185;PMS7003;20067;48.764;9.176;2022-07-06T07:03:41;13.75;13.50;8.50
26185;PMS7003;20067;48.764;9.176;2022-07-06T07:06:07;15.00;12.75;7.50
26185;PMS7003;20067;48.764;9.176;2022-07-06T07:08:32;15.00;14.25;8.25
26185;PMS7003;20067;48.764;9.176;2022-07-06T07:10:58;15.50;14.25;10.50
26185;PMS7003;20067;48.764;9.176;2022-07-06T07:13:24;13.25;13.00;8.00
26185;PMS7003;20067;48.764;9.176;2022-07-06T07:15:49;16.75;16.50;11.00
26185;PMS7003;20067;48.764;9.176;2022-07-06T07:18:15;17.00;16.25;10.00
26185;PMS7003;20067;48.764;9.176;2022-07-06T07:20:41;16.00;13.50;8.00
26185;PMS7003;20067;48.764;9.176;2022-07-06T07:23:06;15.50;14.00;8.50
26185;PMS7003;20067;48.764;9.176;2022-07-06T07:25:32;13.25;13.25;8.00
26185;PMS7003;20067;48.764;9.176;2022-07-06T07:27:57;14.50;14.50;9.00
26185;PMS7003;20067;48.764;9.176;2022-07-06T07:30:23;13.00;13.00;8.00
26185;PMS7003;20067;48.764;9.176;2022-07-06T07:32:49;16.75;15.25;10.50
26185;PMS7003;20067;48.764;9.176;2022-07-06T07:35:15;13.75;13.00;8.00
26185;PMS7003;20067;48.764;9.176;2022-07-06T07:37:40;17.00;14.00;9.00
26185;PMS7003;20067;48.764;9.176;2022-07-06T07:40:06;16.50;15.00;9.00
26185;PMS7003;20067;48.764;9.176;2022-07-06T07:42:32;13.25;13.00;8.00
26185;PMS7003;20067;48.764;9.176;2022-07-06T07:44:57;14.25;14.25;8.00
26185;PMS7003;20067;48.764;9.176;2022-07-06T07:47:23;15.00;15.00;9.75
26185;PMS7003;20067;48.764;9.176;2022-07-06T07:49:49;16.00;13.75;9.00
26185;PMS7003;20067;48.764;9.176;2022-07-06T07:52:15;16.25;14.75;9.00
26185;PMS7003;20067;48.764;9.176;2022-07-06T07:54:40;14.00;14.00;8.50
26185;PMS7003;20067;48.764;9.176;2022-07-06T07:57:06;13.00;13.00;8.00
26185;PMS7003;20067;48.764;9.176;2022-07-06T07:59:32;12.00;12.00;8.00
26185;PMS7003;20067;48.764;9.176;2022-07-06T08:01:57;17.50;15.00;9.75
26185;PMS7003;20067;48.764;9.176;2022-07-06T08:04:23;14.00;14.00;9.00
26185;PMS7003;20067;48.764;9.176;2022-07-06T08:06:49;12.00;11.00;8.00
26185;PMS7003;20067;48.764;9.176;2022-07-06T08:09:15;13.00;13.00;9.00
26185;PMS7003;20067;48.764;9.176;2022-07-06T08:11:41;11.00;11.00;6.75
26185;PMS7003;20067;48.764;9.176;2022-07-06T08:14:07;14.00;12.75;9.00
26185;PMS7003;20067;48.764;9.176;2022-07-06T08:16:33;14.75;13.00;9.00
26185;PMS7003;20067;48.764;9.176;2022-07-06T08:18:59;17.25;14.00;10.00
26185;PMS7003;20067;48.764;9.176;2022-07-06T08:21:24;14.75;12.00;8.00
26185;PMS7003;20067;48.764;9.176;2022-07-06T08:23:50;12.25;12.25;9.00
26185;PMS7003;20067;48.764;9.176;2022-07-06T08:26:17;12.00;12.00;9.00
26185;PMS7003;20067;48.764;9.176;2022-07-06T08:28:43;12.75;12.50;9.50
26185;PMS7003;20067;48.764;9.176;2022-07-06T08:31:08;12.00;12.00;7.00
26185;PMS7003;20067;48.764;9.176;2022-07-06T08:33:34;17.25;13.00;10.00
26185;PMS7003;20067;48.764;9.176;2022-07-06T08:36:00;13.00;12.50;9.25
26185;PMS7003;20067;48.764;9.176;2022-07-06T08:38:26;15.50;13.00;9.25
26185;PMS7003;20067;48.764;9.176;2022-07-06T08:40:51;14.75;13.25;8.00
26185;PMS7003;20067;48.764;9.176;2022-07-06T08:43:17;13.00;12.75;8.50
26185;PMS7003;20067;48.764;9.176;2022-07-06T08:45:43;16.25;16.25;11.00
26185;PMS7003;20067;48.764;9.176;2022-07-06T08:48:11;15.00;15.00;10.75
26185;PMS7003;20067;48.764;9.176;2022-07-06T08:50:37;16.00;15.50;10.75
26185;PMS7003;20067;48.764;9.176;2022-07-06T08:53:03;16.25;15.75;10.00
26185;PMS7003;20067;48.764;9.176;2022-07-06T08:55:29;14.25;13.00;9.50
26185;PMS7003;20067;48.764;9.176;2022-07-06T08:57:56;13.00;13.00;9.00
26185;PMS7003;20067;48.764;9.176;2022-07-06T09:00:22;12.25;12.00;8.00
26185;PMS7003;20067;48.764;9.176;2022-07-06T09:02:50;13.75;12.75;9.00
26185;PMS7003;20067;48.764;9.176;2022-07-06T09:05:16;14.00;13.00;8.00
26185;PMS7003;20067;48.764;9.176;2022-07-06T09:07:42;13.75;12.75;8.00
26185;PMS7003;20067;48.764;9.176;2022-07-06T09:10:13;14.50;14.25;10.25
26185;PMS7003;20067;48.764;9.176;2022-07-06T09:12:39;15.50;13.00;8.50
26185;PMS7003;20067;48.764;9.176;2022-07-06T09:15:04;14.50;14.50;9.75
26185;PMS7003;20067;48.764;9.176;2022-07-06T09:17:30;13.00;11.50;8.00
26185;PMS7003;20067;48.764;9.176;2022-07-06T09:19:56;14.00;11.00;7.00
26185;PMS7003;20067;48.764;9.176;2022-07-06T09:22:25;14.75;12.75;8.00
26185;PMS7003;20067;48.764;9.176;2022-07-06T09:27:36;16.00;14.50;10.25
26185;PMS7003;20067;48.764;9.176;2022-07-06T09:30:12;13.25;12.75;8.25
26185;PMS7003;20067;48.764;9.176;2022-07-06T09:32:40;14.25;14.25;10.25
26185;PMS7003;20067;48.764;9.176;2022-07-06T09:35:07;15.00;14.50;11.00
26185;PMS7003;20067;48.764;9.176;2022-07-06T09:37:43;14.50;12.75;9.00
26185;PMS7003;20067;48.764;9.176;2022-07-06T09:40:16;11.00;11.00;7.00
26185;PMS7003;20067;48.764;9.176;2022-07-06T09:42:43;14.75;14.75;10.50
26185;PMS7003;20067;48.764;9.176;2022-07-06T09:45:09;14.00;14.00;9.00
26185;PMS7003;20067;48.764;9.176;2022-07-06T09:47:35;13.00;13.00;9.00
26185;PMS7003;20067;48.764;9.176;2022-07-06T09:50:04;16.25;14.00;10.00
26185;PMS7003;20067;48.764;9.176;2022-07-06T09:52:34;14.00;14.00;8.75
26185;PMS7003;20067;48.764;9.176;2022-07-06T09:55:00;15.25;14.50;10.25
26185;PMS7003;20067;48.764;9.176;2022-07-06T09:57:30;14.00;14.00;9.25
26185;PMS7003;20067;48.764;9.176;2022-07-06T09:59:56;14.50;14.00;10.50
26185;PMS7003;20067;48.764;9.176;2022-07-06T10:02:23;15.00;14.00;11.00
26185;PMS7003;20067;48.764;9.176;2022-07-06T10:04:51;15.25;14.50;8.00
26185;PMS7003;20067;48.764;9.176;2022-07-06T10:07:19;14.50;13.50;9.00
26185;PMS7003;20067;48.764;9.176;2022-07-06T10:09:48;17.50;15.00;10.50
26185;PMS7003;20067;48.764;9.176;2022-07-06T10:12:16;16.25;13.75;11.00
26185;PMS7003;20067;48.764;9.176;2022-07-06T10:14:43;14.50;14.50;10.00
26185;PMS7003;20067;48.764;9.176;2022-07-06T10:17:10;15.25;14.50;8.75
26185;PMS7003;20067;48.764;9.176;2022-07-06T10:19:37;17.25;16.75;11.75
26185;PMS7003;20067;48.764;9.176;2022-07-06T10:22:04;14.25;13.25;9.25
26185;PMS7003;20067;48.764;9.176;2022-07-06T10:24:31;14.50;12.75;8.75
26185;PMS7003;20067;48.764;9.176;2022-07-06T10:26:59;24.00;21.25;13.25
26185;PMS7003;20067;48.764;9.176;2022-07-06T10:29:25;17.00;15.50;11.00
26185;PMS7003;20067;48.764;9.176;2022-07-06T10:31:51;14.00;14.00;9.50
26185;PMS7003;20067;48.764;9.176;2022-07-06T10:34:19;17.00;15.00;10.00
26185;PMS7003;20067;48.764;9.176;2022-07-06T10:36:48;18.75;18.00;11.00
26185;PMS7003;20067;48.764;9.176;2022-07-06T10:39:15;14.50;13.25;9.75
26185;PMS7003;20067;48.764;9.176;2022-07-06T10:45:06;14.50;14.00;9.00
26185;PMS7003;20067;48.764;9.176;2022-07-06T10:47:31;15.00;14.00;9.75
26185;PMS7003;20067;48.764;9.176;2022-07-06T10:50:00;13.50;13.50;9.75
26185;PMS7003;20067;48.764;9.176;2022-07-06T10:55:33;13.50;13.50;9.00
26185;PMS7003;20067;48.764;9.176;2022-07-06T10:58:01;15.00;14.00;8.25
26185;PMS7003;20067;48.764;9.176;2022-07-06T11:08:41;13.75;13.00;8.75
26185;PMS7003;20067;48.764;9.176;2022-07-06T11:13:48;16.00;16.00;9.50
26185;PMS7003;20067;48.764;9.176;2022-07-06T11:16:19;14.25;14.25;10.25
26185;PMS7003;20067;48.764;9.176;2022-07-06T11:18:50;15.00;14.75;8.50
26185;PMS7003;20067;48.764;9.176;2022-07-06T11:21:43;13.25;12.00;7.25
26185;PMS7003;20067;48.764;9.176;2022-07-06T11:24:33;15.25;13.00;8.00
26185;PMS7003;20067;48.764;9.176;2022-07-06T11:27:00;13.75;13.50;9.00
26185;PMS7003;20067;48.764;9.176;2022-07-06T11:29:26;15.50;15.00;9.00
26185;PMS7003;20067;48.764;9.176;2022-07-06T11:31:54;10.00;10.00;7.00
26185;PMS7003;20067;48.764;9.176;2022-07-06T11:34:28;13.25;12.50;9.00
26185;PMS7003;20067;48.764;9.176;2022-07-06T11:36:56;13.50;13.00;9.00
26185;PMS7003;20067;48.764;9.176;2022-07-06T11:39:26;14.00;13.00;8.25
26185;PMS7003;20067;48.764;9.176;2022-07-06T11:41:56;17.00;15.00;9.00
26185;PMS7003;20067;48.764;9.176;2022-07-06T11:44:23;15.50;13.50;7.50
26185;PMS7003;20067;48.764;9.176;2022-07-06T11:46:49;12.00;10.50;6.75
26185;PMS7003;20067;48.764;9.176;2022-07-06T11:49:14;14.25;14.25;9.00
26185;PMS7003;20067;48.764;9.176;2022-07-06T11:51:41;17.25;14.75;9.25
26185;PMS7003;20067;48.764;9.176;2022-07-06T11:54:17;13.00;13.00;8.25
26185;PMS7003;20067;48.764;9.176;2022-07-06T11:59:30;12.00;11.50;9.00
26185;PMS7003;20067;48.764;9.176;2022-07-06T12:02:02;13.50;13.50;9.00
26185;PMS7003;20067;48.764;9.176;2022-07-06T12:04:33;12.25;12.25;8.00
26185;PMS7003;20067;48.764;9.176;2022-07-06T12:07:01;14.00;14.00;8.75
26185;PMS7003;20067;48.764;9.176;2022-07-06T12:09:39;12.50;12.00;8.75
26185;PMS7003;20067;48.764;9.176;2022-07-06T12:12:06;12.50;12.25;7.75
26185;PMS7003;20067;48.764;9.176;2022-07-06T12:14:34;11.00;11.00;7.00
26185;PMS7003;20067;48.764;9.176;2022-07-06T12:17:04;15.25;12.25;8.00
26185;PMS7003;20067;48.764;9.176;2022-07-06T12:19:40;11.50;11.25;7.75
26185;PMS7003;20067;48.764;9.176;2022-07-06T12:22:08;13.50;13.25;8.25
26185;PMS7003;20067;48.764;9.176;2022-07-06T12:24:34;13.50;12.75;9.00
26185;PMS7003;20067;48.764;9.176;2022-07-06T12:27:12;14.25;13.75;9.00
26185;PMS7003;20067;48.764;9.176;2022-07-06T12:29:39;12.50;11.50;7.25
26185;PMS7003;20067;48.764;9.176;2022-07-06T12:32:05;14.00;14.00;8.00
26185;PMS7003;20067;48.764;9.176;2022-07-06T12:34:31;13.25;11.75;8.00
26185;PMS7003;20067;48.764;9.176;2022-07-06T12:37:02;18.00;14.00;9.00
26185;PMS7003;20067;48.764;9.176;2022-07-06T12:39:32;11.75;11.75;8.00
26185;PMS7003;20067;48.764;9.176;2022-07-06T12:42:15;14.25;13.00;8.25
26185;PMS7003;20067;48.764;9.176;2022-07-06T12:44:43;14.00;14.00;9.00
26185;PMS7003;20067;48.764;9.176;2022-07-06T12:47:11;14.00;13.25;9.00
26185;PMS7003;20067;48.764;9.176;2022-07-06T12:49:37;16.00;14.00;9.75
26185;PMS7003;20067;48.764;9.176;2022-07-06T13:02:23;15.00;14.75;9.00
26185;PMS7003;20067;48.764;9.176;2022-07-06T13:04:56;14.75;13.00;8.75
26185;PMS7003;20067;48.764;9.176;2022-07-06T13:07:27;13.25;13.00;8.25
26185;PMS7003;20067;48.764;9.176;2022-07-06T13:09:54;14.00;14.00;9.00
26185;PMS7003;20067;48.764;9.176;2022-07-06T13:12:20;12.00;10.00;6.50
26185;PMS7003;20067;48.764;9.176;2022-07-06T13:14:47;14.50;13.50;9.25
26185;PMS7003;20067;48.764;9.176;2022-07-06T13:17:13;10.00;10.00;6.50
26185;PMS7003;20067;48.764;9.176;2022-07-06T13:19:39;12.00;12.00;7.50
26185;PMS7003;20067;48.764;9.176;2022-07-06T13:22:05;11.00;11.00;7.25
26185;PMS7003;20067;48.764;9.176;2022-07-06T13:24:30;11.75;11.50;7.75
26185;PMS7003;20067;48.764;9.176;2022-07-06T13:26:56;11.50;11.50;7.50
26185;PMS7003;20067;48.764;9.176;2022-07-06T13:29:22;13.00;12.75;7.00
26185;PMS7003;20067;48.764;9.176;2022-07-06T13:31:48;15.00;14.50;9.00
26185;PMS7003;20067;48.764;9.176;2022-07-06T13:34:14;14.75;13.75;9.50
26185;PMS7003;20067;48.764;9.176;2022-07-06T13:36:40;12.25;12.25;7.50
26185;PMS7003;20067;48.764;9.176;2022-07-06T13:39:06;14.25;13.00;9.50
26185;PMS7003;20067;48.764;9.176;2022-07-06T13:41:33;14.75;14.00;8.25
26185;PMS7003;20067;48.764;9.176;2022-07-06T13:43:59;13.00;13.00;8.50
26185;PMS7003;20067;48.764;9.176;2022-07-06T13:46:26;13.50;12.50;7.50
26185;PMS7003;20067;48.764;9.176;2022-07-06T13:48:52;10.25;10.00;7.00
26185;PMS7003;20067;48.764;9.176;2022-07-06T13:51:18;10.50;10.00;7.00
26185;PMS7003;20067;48.764;9.176;2022-07-06T13:53:43;12.50;12.50;9.00
26185;PMS7003;20067;48.764;9.176;2022-07-06T13:56:09;13.00;11.50;7.00
26185;PMS7003;20067;48.764;9.176;2022-07-06T13:58:36;11.00;11.00;8.00
26185;PMS7003;20067;48.764;9.176;2022-07-06T14:01:02;11.00;11.00;8.00
26185;PMS7003;20067;48.764;9.176;2022-07-06T14:03:28;10.25;10.00;6.00
26185;PMS7003;20067;48.764;9.176;2022-07-06T14:05:58;12.00;12.00;8.00
26185;PMS7003;20067;48.764;9.176;2022-07-06T14:08:24;11.00;11.00;7.75
26185;PMS7003;20067;48.764;9.176;2022-07-06T14:10:51;13.00;12.00;7.75
26185;PMS7003;20067;48.764;9.176;2022-07-06T14:13:18;12.75;12.50;8.00
26185;PMS7003;20067;48.764;9.176;2022-07-06T14:15:44;10.50;10.50;7.00
26185;PMS7003;20067;48.764;9.176;2022-07-06T14:18:10;11.75;11.00;7.50
26185;PMS7003;20067;48.764;9.176;2022-07-06T14:20:36;13.00;12.50;8.50
26185;PMS7003;20067;48.764;9.176;2022-07-06T14:23:02;12.25;11.50;7.75
26185;PMS7003;20067;48.764;9.176;2022-07-06T14:25:28;11.00;10.50;7.25
26185;PMS7003;20067;48.764;9.176;2022-07-06T14:27:54;11.75;10.75;7.75
26185;PMS7003;20067;48.764;9.176;2022-07-06T14:30:19;11.00;11.00;7.50